sensor_id;sensor_type;location;lat;lon;timestamp;pressure;altitude;pressure_sealevel;temperature;humidity
48622;BME280;34421;48.944;9.460;2023-02-12T00:02:15;100517.44;;;7.40;60.52
48622;BME280;34421;48.944;9.460;2023-02-12T00:04:41;100518.44;;;7.39;60.96
48622;BME280;34421;48.944;9.460;2023-02-12T00:07:06;100514.25;;;7.36;60.95
48622;BME280;34421;48.944;9.460;2023-02-12T00:09:31;100516.19;;;7.34;61.43
48622;BME280;34421;48.944;9.460;2023-02-12T00:11:56;100527.06;;;7.31;61.39
48622;BME280;34421;48.944;9.460;2023-02-12T00:14:21;100518.16;;;7.32;61.30
48622;BME280;34421;48.944;9.460;2023-02-12T00:16:47;100526.22;;;7.30;61.86
48622;BME280;34421;48.944;9.460;2023-02-12T00:19:12;100522.03;;;7.28;62.16
48622;BME280;34421;48.944;9.460;2023-02-12T00:21:37;100518.72;;;7.26;62.04
48622;BME280;34421;48.944;9.460;2023-02-12T00:24:02;100511.44;;;7.28;61.92
48622;BME280;34421;48.944;9.460;2023-02-12T00:26:28;100521.91;;;7.29;61.92
48622;BME280;34421;48.944;9.460;2023-02-12T00:28:53;100515.63;;;7.30;61.78
48622;BME280;34421;48.944;9.460;2023-02-12T00:31:20;100512.84;;;7.32;61.72
48622;BME280;34421;48.944;9.460;2023-02-12T00:33:46;100514.66;;;7.31;62.01
48622;BME280;34421;48.944;9.460;2023-02-12T00:36:16;100527.22;;;7.29;62.21
48622;BME280;34421;48.944;9.460;2023-02-12T00:38:41;100523.75;;;7.29;62.38
48622;BME280;34421;48.944;9.460;2023-02-12T00:41:07;100514.94;;;7.28;61.81
48622;BME280;34421;48.944;9.460;2023-02-12T00:43:32;100517.28;;;7.31;61.67
48622;BME280;34421;48.944;9.460;2023-02-12T00:45:57;100536.97;;;7.39;61.59
48622;BME280;34421;48.944;9.460;2023-02-12T00:48:23;100533.22;;;7.41;61.40
48622;BME280;34421;48.944;9.460;2023-02-12T00:50:48;100532.38;;;7.41;61.66
48622;BME280;34421;48.944;9.460;2023-02-12T00:53:14;100525.94;;;7.43;61.14
48622;BME280;34421;48.944;9.460;2023-02-12T00:55:39;100521.50;;;7.44;61.60
48622;BME280;34421;48.944;9.460;2023-02-12T00:58:04;100520.94;;;7.40;61.50
48622;BME280;34421;48.944;9.460;2023-02-12T01:00:29;100523.03;;;7.37;61.47
48622;BME280;34421;48.944;9.460;2023-02-12T01:02:55;100533.78;;;7.35;61.75
48622;BME280;34421;48.944;9.460;2023-02-12T01:05:20;100522.06;;;7.38;62.09
48622;BME280;34421;48.944;9.460;2023-02-12T01:07:51;100526.22;;;7.40;61.74
48622;BME280;34421;48.944;9.460;2023-02-12T01:10:17;100520.09;;;7.40;61.94
48622;BME280;34421;48.944;9.460;2023-02-12T01:12:42;100522.19;;;7.36;61.88
48622;BME280;34421;48.944;9.460;2023-02-12T01:15:08;100527.38;;;7.38;61.89
48622;BME280;34421;48.944;9.460;2023-02-12T01:17:36;100529.88;;;7.39;61.85
48622;BME280;34421;48.944;9.460;2023-02-12T01:20:01;100522.63;;;7.41;61.98
48622;BME280;34421;48.944;9.460;2023-02-12T01:22:29;100520.81;;;7.42;61.71
48622;BME280;34421;48.944;9.460;2023-02-12T01:24:55;100524.00;;;7.45;61.67
48622;BME280;34421;48.944;9.460;2023-02-12T01:27:20;100527.19;;;7.49;61.65
48622;BME280;34421;48.944;9.460;2023-02-12T01:29:45;100525.13;;;7.52;61.05
48622;BME280;34421;48.944;9.460;2023-02-12T01:32:10;100521.06;;;7.48;61.10
48622;BME280;34421;48.944;9.460;2023-02-12T01:34:36;100523.16;;;7.45;61.43
48622;BME280;34421;48.944;9.460;2023-02-12T01:37:01;100521.50;;;7.44;61.51
48622;BME280;34421;48.944;9.460;2023-02-12T01:39:27;100519.53;;;7.46;61.15
48622;BME280;34421;48.944;9.460;2023-02-12T01:41:52;100521.34;;;7.45;61.36
48622;BME280;34421;48.944;9.460;2023-02-12T01:44:18;100520.66;;;7.43;61.20
48622;BME280;34421;48.944;9.460;2023-02-12T01:46:45;100506.00;;;7.39;61.46
48622;BME280;34421;48.944;9.460;2023-02-12T01:49:12;100515.34;;;7.34;61.65
48622;BME280;34421;48.944;9.460;2023-02-12T01:51:39;100520.53;;;7.35;61.26
48622;BME280;34421;48.944;9.460;2023-02-12T01:54:05;100524.56;;;7.39;61.35
48622;BME280;34421;48.944;9.460;2023-02-12T01:56:32;100518.97;;;7.42;61.20
48622;BME280;34421;48.944;9.460;2023-02-12T01:58:58;100519.97;;;7.41;61.16
48622;BME280;34421;48.944;9.460;2023-02-12T02:01:24;100524.56;;;7.39;61.41
48622;BME280;34421;48.944;9.460;2023-02-12T02:03:51;100515.22;;;7.35;61.69
48622;BME280;34421;48.944;9.460;2023-02-12T02:06:19;100512.59;;;7.35;61.69
48622;BME280;34421;48.944;9.460;2023-02-12T02:08:46;100512.84;;;7.32;61.50
48622;BME280;34421;48.944;9.460;2023-02-12T02:11:12;100512.44;;;7.27;61.83
48622;BME280;34421;48.944;9.460;2023-02-12T02:13:55;100503.78;;;7.25;61.76
48622;BME280;34421;48.944;9.460;2023-02-12T02:16:41;100498.63;;;7.23;62.09
48622;BME280;34421;48.944;9.460;2023-02-12T02:19:08;100500.28;;;7.24;62.42
48622;BME280;34421;48.944;9.460;2023-02-12T02:32:07;100489.41;;;7.18;62.80
48622;BME280;34421;48.944;9.460;2023-02-12T02:34:43;100489.28;;;7.19;62.68
48622;BME280;34421;48.944;9.460;2023-02-12T02:39:48;100491.38;;;7.16;62.39
48622;BME280;34421;48.944;9.460;2023-02-12T02:42:15;100485.34;;;7.14;62.41
48622;BME280;34421;48.944;9.460;2023-02-12T02:47:08;100497.09;;;7.11;63.01
48622;BME280;34421;48.944;9.460;2023-02-12T02:49:41;100501.81;;;7.07;62.76
48622;BME280;34421;48.944;9.460;2023-02-12T02:52:08;100494.28;;;7.13;63.03
48622;BME280;34421;48.944;9.460;2023-02-12T02:54:36;100500.72;;;7.20;62.59
48622;BME280;34421;48.944;9.460;2023-02-12T02:59:42;100506.69;;;7.31;62.48
48622;BME280;34421;48.944;9.460;2023-02-12T03:02:26;100506.56;;;7.33;62.00
48622;BME280;34421;48.944;9.460;2023-02-12T03:04:57;100500.28;;;7.34;62.03
48622;BME280;34421;48.944;9.460;2023-02-12T03:07:26;100503.91;;;7.33;61.71
48622;BME280;34421;48.944;9.460;2023-02-12T03:09:58;100503.09;;;7.33;61.77
48622;BME280;34421;48.944;9.460;2023-02-12T03:12:38;100505.88;;;7.31;61.87
48622;BME280;34421;48.944;9.460;2023-02-12T03:15:08;100502.66;;;7.27;61.80
48622;BME280;34421;48.944;9.460;2023-02-12T03:17:37;100504.75;;;7.24;62.50
48622;BME280;34421;48.944;9.460;2023-02-12T03:20:05;100499.75;;;7.21;62.65
48622;BME280;34421;48.944;9.460;2023-02-12T03:22:35;100497.22;;;7.19;63.05
48622;BME280;34421;48.944;9.460;2023-02-12T03:25:03;100502.66;;;7.18;62.63
48622;BME280;34421;48.944;9.460;2023-02-12T03:27:35;100511.31;;;7.20;62.44
48622;BME280;34421;48.944;9.460;2023-02-12T03:30:02;100502.38;;;7.21;62.12
48622;BME280;34421;48.944;9.460;2023-02-12T03:32:29;100503.09;;;7.23;62.22
48622;BME280;34421;48.944;9.460;2023-02-12T03:35:01;100506.56;;;7.23;62.60
48622;BME280;34421;48.944;9.460;2023-02-12T03:37:45;100515.34;;;7.24;62.57
48622;BME280;34421;48.944;9.460;2023-02-12T03:48:00;100509.34;;;7.22;62.50
48622;BME280;34421;48.944;9.460;2023-02-12T03:50:31;100517.19;;;7.23;62.40
48622;BME280;34421;48.944;9.460;2023-02-12T03:52:59;100505.75;;;7.23;62.40
48622;BME280;34421;48.944;9.460;2023-02-12T03:55:24;100513.69;;;7.23;62.31
48622;BME280;34421;48.944;9.460;2023-02-12T03:57:52;100520.66;;;7.24;62.23
48622;BME280;34421;48.944;9.460;2023-02-12T04:00:22;100518.84;;;7.24;62.08
48622;BME280;34421;48.944;9.460;2023-02-12T04:02:48;100525.81;;;7.25;62.37
48622;BME280;34421;48.944;9.460;2023-02-12T04:05:18;100519.00;;;7.23;62.49
48622;BME280;34421;48.944;9.460;2023-02-12T04:07:43;100516.63;;;7.20;62.48
48622;BME280;34421;48.944;9.460;2023-02-12T04:10:09;100525.41;;;7.20;62.67
48622;BME280;34421;48.944;9.460;2023-02-12T04:13:18;100526.50;;;7.18;62.51
48622;BME280;34421;48.944;9.460;2023-02-12T04:15:28;100531.25;;;7.14;62.98
48622;BME280;34421;48.944;9.460;2023-02-12T04:18:18;100526.22;;;7.11;63.11
48622;BME280;34421;48.944;9.460;2023-02-12T04:20:56;100531.81;;;7.08;63.63
48622;BME280;34421;48.944;9.460;2023-02-12T04:28:40;100532.53;;;7.20;63.15
48622;BME280;34421;48.944;9.460;2023-02-12T04:31:22;100540.47;;;7.20;63.70
48622;BME280;34421;48.944;9.460;2023-02-12T04:36:52;100538.78;;;7.19;62.92
48622;BME280;34421;48.944;9.460;2023-02-12T04:39:20;100538.22;;;7.15;63.26
48622;BME280;34421;48.944;9.460;2023-02-12T04:41:46;100546.00;;;7.17;63.17
48622;BME280;34421;48.944;9.460;2023-02-12T04:44:16;100543.94;;;7.20;62.85
48622;BME280;34421;48.944;9.460;2023-02-12T04:46:42;100554.13;;;7.25;62.62
48622;BME280;34421;48.944;9.460;2023-02-12T04:49:07;100549.53;;;7.27;62.82
48622;BME280;34421;48.944;9.460;2023-02-12T04:51:37;100543.25;;;7.28;62.91
48622;BME280;34421;48.944;9.460;2023-02-12T04:54:02;100546.59;;;7.30;62.51
48622;BME280;34421;48.944;9.460;2023-02-12T04:56:27;100542.97;;;7.31;62.77
48622;BME280;34421;48.944;9.460;2023-02-12T04:58:52;100543.94;;;7.30;62.57
48622;BME280;34421;48.944;9.460;2023-02-12T05:01:21;100546.72;;;7.28;62.59
48622;BME280;34421;48.944;9.460;2023-02-12T05:03:47;100546.03;;;7.26;62.72
48622;BME280;34421;48.944;9.460;2023-02-12T05:06:12;100546.31;;;7.23;62.75
48622;BME280;34421;48.944;9.460;2023-02-12T05:08:37;100534.03;;;7.22;63.03
48622;BME280;34421;48.944;9.460;2023-02-12T05:11:03;100539.59;;;7.19;62.51
48622;BME280;34421;48.944;9.460;2023-02-12T05:13:29;100525.69;;;7.17;63.23
48622;BME280;34421;48.944;9.460;2023-02-12T05:15:54;100536.28;;;7.17;63.23
48622;BME280;34421;48.944;9.460;2023-02-12T05:18:19;100526.78;;;7.15;62.94
48622;BME280;34421;48.944;9.460;2023-02-12T05:20:44;100529.84;;;7.10;63.43
48622;BME280;34421;48.944;9.460;2023-02-12T05:23:09;100537.09;;;7.08;63.11
48622;BME280;34421;48.944;9.460;2023-02-12T05:25:35;100536.50;;;7.04;63.45
48622;BME280;34421;48.944;9.460;2023-02-12T05:28:00;100536.78;;;7.01;63.43
48622;BME280;34421;48.944;9.460;2023-02-12T05:30:26;100539.72;;;6.98;64.12
48622;BME280;34421;48.944;9.460;2023-02-12T05:32:51;100538.75;;;6.99;63.98
48622;BME280;34421;48.944;9.460;2023-02-12T05:35:16;100537.78;;;7.00;63.35
48622;BME280;34421;48.944;9.460;2023-02-12T05:37:41;100537.63;;;7.02;64.36
48622;BME280;34421;48.944;9.460;2023-02-12T05:40:07;100541.69;;;6.96;63.53
48622;BME280;34421;48.944;9.460;2023-02-12T05:42:32;100541.09;;;6.93;63.67
48622;BME280;34421;48.944;9.460;2023-02-12T05:44:58;100538.59;;;6.91;64.24
48622;BME280;34421;48.944;9.460;2023-02-12T05:47:23;100540.41;;;6.91;64.15
48622;BME280;34421;48.944;9.460;2023-02-12T05:49:48;100545.84;;;6.89;64.49
48622;BME280;34421;48.944;9.460;2023-02-12T05:52:13;100543.34;;;6.88;63.36
48622;BME280;34421;48.944;9.460;2023-02-12T05:54:38;100541.78;;;6.85;64.09
48622;BME280;34421;48.944;9.460;2023-02-12T05:57:04;100535.94;;;6.81;64.21
48622;BME280;34421;48.944;9.460;2023-02-12T05:59:30;100542.34;;;6.79;64.22
48622;BME280;34421;48.944;9.460;2023-02-12T06:01:56;100539.97;;;6.76;63.84
48622;BME280;34421;48.944;9.460;2023-02-12T06:04:22;100541.44;;;6.69;64.20
48622;BME280;34421;48.944;9.460;2023-02-12T06:06:48;100544.25;;;6.67;64.61
48622;BME280;34421;48.944;9.460;2023-02-12T06:09:14;100543.09;;;6.60;64.51
48622;BME280;34421;48.944;9.460;2023-02-12T06:11:39;100547.56;;;6.59;64.53
48622;BME280;34421;48.944;9.460;2023-02-12T06:14:05;100553.13;;;6.56;64.49
48622;BME280;34421;48.944;9.460;2023-02-12T06:16:31;100556.47;;;6.58;65.26
48622;BME280;34421;48.944;9.460;2023-02-12T06:18:57;100544.91;;;6.59;64.80
48622;BME280;34421;48.944;9.460;2023-02-12T06:21:23;100548.25;;;6.61;64.98
48622;BME280;34421;48.944;9.460;2023-02-12T06:23:49;100547.44;;;6.61;64.83
48622;BME280;34421;48.944;9.460;2023-02-12T06:26:14;100558.03;;;6.61;65.58
48622;BME280;34421;48.944;9.460;2023-02-12T06:28:40;100548.38;;;6.60;65.78
48622;BME280;34421;48.944;9.460;2023-02-12T06:31:14;100555.22;;;6.62;65.90
48622;BME280;34421;48.944;9.460;2023-02-12T06:33:40;100546.75;;;6.69;65.61
48622;BME280;34421;48.944;9.460;2023-02-12T06:36:06;100558.16;;;6.69;65.00
48622;BME280;34421;48.944;9.460;2023-02-12T06:38:33;100555.28;;;6.72;65.05
48622;BME280;34421;48.944;9.460;2023-02-12T06:41:00;100558.34;;;6.77;65.01
48622;BME280;34421;48.944;9.460;2023-02-12T06:43:25;100555.41;;;6.80;65.27
48622;BME280;34421;48.944;9.460;2023-02-12T06:45:50;100553.22;;;6.85;64.61
48622;BME280;34421;48.944;9.460;2023-02-12T06:48:15;100559.06;;;6.89;64.60
48622;BME280;34421;48.944;9.460;2023-02-12T06:50:40;100569.13;;;6.95;65.18
48622;BME280;34421;48.944;9.460;2023-02-12T06:53:06;100572.91;;;7.02;64.33
48622;BME280;34421;48.944;9.460;2023-02-12T06:55:31;100566.38;;;7.06;64.55
48622;BME280;34421;48.944;9.460;2023-02-12T06:57:56;100571.38;;;7.10;64.12
48622;BME280;34421;48.944;9.460;2023-02-12T07:00:21;100573.75;;;7.13;64.38
48622;BME280;34421;48.944;9.460;2023-02-12T07:02:51;100572.78;;;7.14;64.19
48622;BME280;34421;48.944;9.460;2023-02-12T07:05:16;100570.13;;;7.14;64.42
48622;BME280;34421;48.944;9.460;2023-02-12T07:07:41;100572.94;;;7.12;64.96
48622;BME280;34421;48.944;9.460;2023-02-12T07:10:07;100576.97;;;7.16;64.82
48622;BME280;34421;48.944;9.460;2023-02-12T07:12:32;100576.41;;;7.22;64.26
48622;BME280;34421;48.944;9.460;2023-02-12T07:14:57;100577.56;;;7.29;64.87
48622;BME280;34421;48.944;9.460;2023-02-12T07:17:23;100567.78;;;7.40;64.77
48622;BME280;34421;48.944;9.460;2023-02-12T07:19:48;100568.94;;;7.47;64.69
48622;BME280;34421;48.944;9.460;2023-02-12T07:22:13;100578.16;;;7.52;64.36
48622;BME280;34421;48.944;9.460;2023-02-12T07:24:38;100574.94;;;7.59;64.12
48622;BME280;34421;48.944;9.460;2023-02-12T07:27:03;100584.28;;;7.63;63.81
48622;BME280;34421;48.944;9.460;2023-02-12T07:29:29;100584.84;;;7.66;63.62
48622;BME280;34421;48.944;9.460;2023-02-12T07:31:54;100589.16;;;7.67;63.67
48622;BME280;34421;48.944;9.460;2023-02-12T07:34:19;100590.00;;;7.68;63.93
48622;BME280;34421;48.944;9.460;2023-02-12T07:36:44;100583.44;;;7.72;64.19
48622;BME280;34421;48.944;9.460;2023-02-12T07:39:10;100586.78;;;7.74;64.27
48622;BME280;34421;48.944;9.460;2023-02-12T07:41:35;100585.53;;;7.78;64.19
48622;BME280;34421;48.944;9.460;2023-02-12T07:44:02;100582.59;;;7.81;64.07
48622;BME280;34421;48.944;9.460;2023-02-12T07:46:31;100586.22;;;7.90;64.12
48622;BME280;34421;48.944;9.460;2023-02-12T07:48:59;100587.47;;;7.95;63.86
48622;BME280;34421;48.944;9.460;2023-02-12T07:51:25;100589.56;;;8.02;63.67
48622;BME280;34421;48.944;9.460;2023-02-12T07:53:50;100587.88;;;8.10;63.48
48622;BME280;34421;48.944;9.460;2023-02-12T07:56:17;100583.09;;;8.14;63.51
48622;BME280;34421;48.944;9.460;2023-02-12T07:58:43;100587.84;;;8.20;62.82
48622;BME280;34421;48.944;9.460;2023-02-12T08:03:36;100581.66;;;8.29;63.03
48622;BME280;34421;48.944;9.460;2023-02-12T08:06:05;100584.59;;;8.36;62.26
48622;BME280;34421;48.944;9.460;2023-02-12T08:08:31;100585.00;;;8.41;62.17
48622;BME280;34421;48.944;9.460;2023-02-12T08:10:56;100586.84;;;8.40;61.67
48622;BME280;34421;48.944;9.460;2023-02-12T08:13:21;100590.56;;;8.48;62.60
48622;BME280;34421;48.944;9.460;2023-02-12T08:15:46;100591.16;;;8.51;62.15
48622;BME280;34421;48.944;9.460;2023-02-12T08:18:11;100586.09;;;8.58;62.00
48622;BME280;34421;48.944;9.460;2023-02-12T08:20:37;100588.75;;;8.58;62.43
48622;BME280;34421;48.944;9.460;2023-02-12T08:23:02;100582.56;;;8.67;62.34
48622;BME280;34421;48.944;9.460;2023-02-12T08:25:27;100582.66;;;8.75;63.01
48622;BME280;34421;48.944;9.460;2023-02-12T08:27:52;100586.38;;;8.82;62.29
48622;BME280;34421;48.944;9.460;2023-02-12T08:30:17;100583.84;;;8.90;62.00
48622;BME280;34421;48.944;9.460;2023-02-12T08:32:43;100588.84;;;8.94;61.86
48622;BME280;34421;48.944;9.460;2023-02-12T08:35:08;100584.78;;;8.99;62.13
48622;BME280;34421;48.944;9.460;2023-02-12T08:37:33;100586.97;;;9.04;61.96
48622;BME280;34421;48.944;9.460;2023-02-12T08:39:58;100591.69;;;9.10;61.29
48622;BME280;34421;48.944;9.460;2023-02-12T08:42:23;100581.03;;;9.20;61.83
48622;BME280;34421;48.944;9.460;2023-02-12T08:44:49;100583.50;;;9.21;62.02
48622;BME280;34421;48.944;9.460;2023-02-12T08:47:14;100584.59;;;9.28;61.13
48622;BME280;34421;48.944;9.460;2023-02-12T08:49:40;100584.84;;;9.35;61.77
48622;BME280;34421;48.944;9.460;2023-02-12T08:52:05;100587.03;;;9.40;61.36
48622;BME280;34421;48.944;9.460;2023-02-12T08:54:30;100581.78;;;9.48;61.46
48622;BME280;34421;48.944;9.460;2023-02-12T08:56:57;100583.00;;;9.53;61.11
48622;BME280;34421;48.944;9.460;2023-02-12T08:59:22;100592.03;;;9.61;60.51
48622;BME280;34421;48.944;9.460;2023-02-12T09:01:49;100590.78;;;9.65;60.27
48622;BME280;34421;48.944;9.460;2023-02-12T09:04:20;100594.66;;;9.70;60.34
48622;BME280;34421;48.944;9.460;2023-02-12T09:06:46;100590.84;;;9.73;60.08
48622;BME280;34421;48.944;9.460;2023-02-12T09:09:12;100591.06;;;9.79;60.77
48622;BME280;34421;48.944;9.460;2023-02-12T09:11:37;100587.25;;;9.82;60.43
48622;BME280;34421;48.944;9.460;2023-02-12T09:14:04;100582.47;;;9.86;60.50
48622;BME280;34421;48.944;9.460;2023-02-12T09:16:30;100585.03;;;9.95;59.95
48622;BME280;34421;48.944;9.460;2023-02-12T09:18:55;100589.91;;;10.00;59.40
48622;BME280;34421;48.944;9.460;2023-02-12T09:21:21;100580.28;;;10.07;60.63
48622;BME280;34421;48.944;9.460;2023-02-12T09:23:47;100574.34;;;10.13;59.76
48622;BME280;34421;48.944;9.460;2023-02-12T09:26:13;100575.88;;;10.16;59.78
48622;BME280;34421;48.944;9.460;2023-02-12T09:28:39;100568.78;;;10.24;60.88
48622;BME280;34421;48.944;9.460;2023-02-12T09:31:09;100576.22;;;10.39;60.77
48622;BME280;34421;48.944;9.460;2023-02-12T09:33:34;100578.63;;;10.58;59.62
48622;BME280;34421;48.944;9.460;2023-02-12T09:36:01;100584.06;;;10.75;60.01
48622;BME280;34421;48.944;9.460;2023-02-12T09:38:27;100574.44;;;10.90;58.96
48622;BME280;34421;48.944;9.460;2023-02-12T09:43:30;100579.22;;;11.12;57.97
48622;BME280;34421;48.944;9.460;2023-02-12T09:46:04;100580.03;;;11.21;58.83
48622;BME280;34421;48.944;9.460;2023-02-12T09:51:09;100581.94;;;11.45;57.59
48622;BME280;34421;48.944;9.460;2023-02-12T09:53:38;100582.94;;;11.52;57.63
48622;BME280;34421;48.944;9.460;2023-02-12T09:56:23;100583.78;;;11.53;57.24
48622;BME280;34421;48.944;9.460;2023-02-12T10:01:14;100587.78;;;11.73;57.76
48622;BME280;34421;48.944;9.460;2023-02-12T10:03:40;100584.13;;;11.82;56.63
48622;BME280;34421;48.944;9.460;2023-02-12T10:06:16;100592.16;;;11.91;57.00
48622;BME280;34421;48.944;9.460;2023-02-12T10:11:18;100593.16;;;11.90;56.97
48622;BME280;34421;48.944;9.460;2023-02-12T10:16:33;100586.31;;;12.03;55.95
48622;BME280;34421;48.944;9.460;2023-02-12T10:19:18;100586.31;;;12.20;56.21
48622;BME280;34421;48.944;9.460;2023-02-12T10:26:59;100577.38;;;12.52;54.86
48622;BME280;34421;48.944;9.460;2023-02-12T10:29:28;100581.88;;;12.60;54.40
48622;BME280;34421;48.944;9.460;2023-02-12T10:32:05;100579.81;;;12.70;54.55
48622;BME280;34421;48.944;9.460;2023-02-12T10:34:32;100581.13;;;12.82;54.45
48622;BME280;34421;48.944;9.460;2023-02-12T10:37:13;100567.69;;;12.98;53.82
48622;BME280;34421;48.944;9.460;2023-02-12T10:39:42;100573.47;;;13.10;53.37
48622;BME280;34421;48.944;9.460;2023-02-12T10:44:42;100572.00;;;12.99;52.80
48622;BME280;34421;48.944;9.460;2023-02-12T10:47:21;100566.03;;;12.97;53.05
48622;BME280;34421;48.944;9.460;2023-02-12T10:49:51;100568.69;;;12.97;53.10
48622;BME280;34421;48.944;9.460;2023-02-12T10:52:29;100568.06;;;12.87;53.29
48622;BME280;34421;48.944;9.460;2023-02-12T10:54:57;100559.88;;;12.89;52.57
48622;BME280;34421;48.944;9.460;2023-02-12T10:57:26;100560.53;;;12.91;53.49
48622;BME280;34421;48.944;9.460;2023-02-12T10:59:53;100563.25;;;12.83;52.76
48622;BME280;34421;48.944;9.460;2023-02-12T11:02:20;100560.09;;;12.79;53.43
48622;BME280;34421;48.944;9.460;2023-02-12T11:04:45;100559.78;;;12.74;52.42
48622;BME280;34421;48.944;9.460;2023-02-12T11:07:11;100554.09;;;12.69;52.76
48622;BME280;34421;48.944;9.460;2023-02-12T11:09:37;100550.41;;;12.78;52.83
48622;BME280;34421;48.944;9.460;2023-02-12T11:12:19;100551.19;;;12.87;52.58
48622;BME280;34421;48.944;9.460;2023-02-12T11:14:48;100551.28;;;13.02;52.49
48622;BME280;34421;48.944;9.460;2023-02-12T11:17:18;100543.63;;;12.98;52.65
48622;BME280;34421;48.944;9.460;2023-02-12T11:19:47;100547.31;;;12.97;52.84
48622;BME280;34421;48.944;9.460;2023-02-12T11:22:26;100539.75;;;13.01;52.40
48622;BME280;34421;48.944;9.460;2023-02-12T11:24:58;100540.25;;;13.05;52.27
48622;BME280;34421;48.944;9.460;2023-02-12T11:27:25;100546.25;;;13.07;52.41
48622;BME280;34421;48.944;9.460;2023-02-12T11:32:37;100535.63;;;13.21;52.14
48622;BME280;34421;48.944;9.460;2023-02-12T11:35:03;100538.28;;;13.30;52.03
48622;BME280;34421;48.944;9.460;2023-02-12T11:37:29;100542.13;;;13.50;51.52
48622;BME280;34421;48.944;9.460;2023-02-12T11:39:57;100541.91;;;13.60;51.07
48622;BME280;34421;48.944;9.460;2023-02-12T11:42:23;100540.41;;;13.80;50.22
48622;BME280;34421;48.944;9.460;2023-02-12T11:44:50;100536.75;;;13.96;49.28
48622;BME280;34421;48.944;9.460;2023-02-12T11:47:20;100531.13;;;14.06;49.37
48622;BME280;34421;48.944;9.460;2023-02-12T11:49:51;100537.16;;;14.23;49.66
48622;BME280;34421;48.944;9.460;2023-02-12T11:52:28;100535.31;;;14.38;49.44
48622;BME280;34421;48.944;9.460;2023-02-12T11:54:56;100535.22;;;14.31;49.06
48622;BME280;34421;48.944;9.460;2023-02-12T11:57:36;100530.22;;;14.28;48.60
48622;BME280;34421;48.944;9.460;2023-02-12T12:00:11;100524.03;;;14.43;49.14
48622;BME280;34421;48.944;9.460;2023-02-12T12:02:38;100529.78;;;14.54;48.04
48622;BME280;34421;48.944;9.460;2023-02-12T12:05:08;100523.84;;;14.74;48.17
48622;BME280;34421;48.944;9.460;2023-02-12T12:07:36;100522.91;;;14.96;47.51
48622;BME280;34421;48.944;9.460;2023-02-12T12:15:16;100516.34;;;14.69;47.83
48622;BME280;34421;48.944;9.460;2023-02-12T12:20:52;100517.31;;;14.98;47.54
48622;BME280;34421;48.944;9.460;2023-02-12T12:23:29;100523.34;;;15.00;46.68
48622;BME280;34421;48.944;9.460;2023-02-12T12:25:58;100512.69;;;15.07;47.06
48622;BME280;34421;48.944;9.460;2023-02-12T12:28:33;100521.81;;;15.12;46.69
48622;BME280;34421;48.944;9.460;2023-02-12T12:31:09;100515.81;;;15.10;47.24
48622;BME280;34421;48.944;9.460;2023-02-12T12:33:43;100518.09;;;14.92;46.45
48622;BME280;34421;48.944;9.460;2023-02-12T12:43:38;100506.38;;;15.36;46.78
48622;BME280;34421;48.944;9.460;2023-02-12T12:51:22;100494.41;;;15.60;45.75
48622;BME280;34421;48.944;9.460;2023-02-12T13:24:44;100471.78;;;13.18;50.84
48622;BME280;34421;48.944;9.460;2023-02-12T13:27:13;100463.41;;;12.98;51.83
48622;BME280;34421;48.944;9.460;2023-02-12T13:29:41;100456.59;;;12.65;52.25
48622;BME280;34421;48.944;9.460;2023-02-12T13:34:53;100465.25;;;12.36;52.66
48622;BME280;34421;48.944;9.460;2023-02-12T13:37:21;100459.91;;;12.36;52.89
48622;BME280;34421;48.944;9.460;2023-02-12T13:39:49;100460.72;;;12.36;53.00
48622;BME280;34421;48.944;9.460;2023-02-12T13:50:26;100454.25;;;12.22;54.02
48622;BME280;34421;48.944;9.460;2023-02-12T13:57:43;100438.41;;;12.21;53.44
48622;BME280;34421;48.944;9.460;2023-02-12T14:00:54;100435.91;;;12.19;53.93
48622;BME280;34421;48.944;9.460;2023-02-12T14:02:54;100440.94;;;12.14;54.08
48622;BME280;34421;48.944;9.460;2023-02-12T14:05:26;100431.59;;;12.10;54.09
48622;BME280;34421;48.944;9.460;2023-02-12T14:07:56;100443.78;;;12.13;54.18
48622;BME280;34421;48.944;9.460;2023-02-12T14:10:23;100438.75;;;12.18;54.34
48622;BME280;34421;48.944;9.460;2023-02-12T14:12:50;100439.38;;;12.28;54.26
48622;BME280;34421;48.944;9.460;2023-02-12T14:20:29;100435.38;;;12.32;54.29
48622;BME280;34421;48.944;9.460;2023-02-12T14:25:40;100432.34;;;12.35;53.13
48622;BME280;34421;48.944;9.460;2023-02-12T14:30:36;100437.03;;;12.33;52.82
48622;BME280;34421;48.944;9.460;2023-02-12T14:42:59;100415.63;;;12.41;54.04
48622;BME280;34421;48.944;9.460;2023-02-12T14:45:29;100418.31;;;12.41;53.21
48622;BME280;34421;48.944;9.460;2023-02-12T14:47:55;100414.13;;;12.39;54.16
48622;BME280;34421;48.944;9.460;2023-02-12T14:50:21;100415.63;;;12.41;53.91
48622;BME280;34421;48.944;9.460;2023-02-12T14:52:57;100411.78;;;12.44;53.94
48622;BME280;34421;48.944;9.460;2023-02-12T14:55:27;100406.91;;;12.47;53.75
48622;BME280;34421;48.944;9.460;2023-02-12T14:57:55;100402.88;;;12.51;53.20
48622;BME280;34421;48.944;9.460;2023-02-12T15:00:27;100406.09;;;12.47;53.48
48622;BME280;34421;48.944;9.460;2023-02-12T15:02:54;100395.75;;;12.44;53.15
48622;BME280;34421;48.944;9.460;2023-02-12T15:05:31;100400.59;;;12.40;53.32
48622;BME280;34421;48.944;9.460;2023-02-12T15:08:10;100402.63;;;12.38;53.49
48622;BME280;34421;48.944;9.460;2023-02-12T15:10:46;100398.94;;;12.39;53.97
48622;BME280;34421;48.944;9.460;2023-02-12T15:21:18;100397.25;;;12.46;53.03
48622;BME280;34421;48.944;9.460;2023-02-12T15:23:45;100393.25;;;12.42;54.22
48622;BME280;34421;48.944;9.460;2023-02-12T15:26:14;100389.59;;;12.43;53.97
48622;BME280;34421;48.944;9.460;2023-02-12T15:28:40;100393.78;;;12.38;53.12
48622;BME280;34421;48.944;9.460;2023-02-12T15:31:06;100389.97;;;12.32;53.27
48622;BME280;34421;48.944;9.460;2023-02-12T15:33:38;100397.97;;;12.32;53.22
48622;BME280;34421;48.944;9.460;2023-02-12T15:36:04;100385.63;;;12.31;53.19
48622;BME280;34421;48.944;9.460;2023-02-12T15:38:39;100386.47;;;12.31;53.98